Time;durP1;ratioP1;P1;durP2;ratioP2;P2;SDS_P1;SDS_P2;PMS_P1;PMS_P2;Temp;Humidity;BMP_temperature;BMP_pressure;BME280_temperature;BME280_humidity;BME280_pressure;Samples;Min_cycle;Max_cycle;Signal;HPM_P1;HPM_P2
2024/01/17 00:02:02;;;;;;;63.80;29.00;;;;;;;-8.28;74.81;99957.60;215915;1257;61352;-74
2024/01/17 00:06:56;;;;;;;59.30;25.90;;;;;;;-8.19;74.98;99956.77;216212;1254;61434;-73
2024/01/17 00:11:50;;;;;;;62.80;29.00;;;;;;;-8.11;75.12;99952.35;216065;1254;73368;-73
2024/01/17 00:16:44;;;;;;;53.40;27.80;;;;;;;-8.00;75.46;99951.69;215901;1257;70562;-73
2024/01/17 00:21:37;;;;;;;51.60;23.20;;;;;;;-7.91;75.55;99942.13;215721;1254;61250;-74
2024/01/17 00:26:30;;;;;;;58.00;25.60;;;;;;;-7.80;75.83;99935.36;215927;1254;67851;-73
2024/01/17 00:31:23;;;;;;;47.20;23.70;;;;;;;-7.74;75.78;99924.55;216171;1254;61122;-73
2024/01/17 00:36:15;;;;;;;52.50;24.70;;;;;;;-7.66;76.20;99927.23;216135;1254;61229;-74
2024/01/17 00:41:08;;;;;;;66.70;28.00;;;;;;;-7.55;76.28;99927.50;216265;1253;61333;-73
2024/01/17 00:46:01;;;;;;;67.80;30.90;;;;;;;-7.48;76.50;99921.86;216189;1256;61215;-74
2024/01/17 00:50:54;;;;;;;68.80;29.90;;;;;;;-7.41;76.59;99915.98;216067;1253;61307;-73
2024/01/17 00:55:47;;;;;;;63.30;29.30;;;;;;;-7.35;76.50;99926.04;216298;1254;61251;-73
2024/01/17 01:00:40;;;;;;;69.50;30.80;;;;;;;-7.29;76.48;99937.05;216351;1252;61305;-73
2024/01/17 01:05:32;;;;;;;72.40;30.20;;;;;;;-7.24;76.57;99939.42;216155;1254;61307;-74
2024/01/17 01:10:25;;;;;;;65.00;30.20;;;;;;;-7.19;76.78;99930.25;216567;1253;61596;-74
2024/01/17 01:15:18;;;;;;;66.70;31.60;;;;;;;-7.14;76.51;99942.03;216270;1254;61291;-73
2024/01/17 01:20:11;;;;;;;62.90;29.70;;;;;;;-7.09;76.82;99933.11;216275;1256;61282;-74
2024/01/17 01:25:05;;;;;;;65.10;28.20;;;;;;;-7.03;77.09;99929.88;216283;1254;62973;-73
2024/01/17 01:29:58;;;;;;;65.00;29.20;;;;;;;-6.99;77.18;99919.86;216275;1254;61259;-73
2024/01/17 01:34:50;;;;;;;59.00;27.60;;;;;;;-6.96;77.00;99912.25;215836;1254;128849;-73
2024/01/17 01:39:43;;;;;;;53.50;25.90;;;;;;;-6.89;77.33;99904.26;216291;1253;61333;-73
2024/01/17 01:44:36;;;;;;;55.40;26.70;;;;;;;-6.85;77.44;99894.46;216173;1254;61863;-74
2024/01/17 01:49:30;;;;;;;52.60;26.80;;;;;;;-6.81;77.40;99885.83;216182;1253;61351;-73
2024/01/17 01:54:24;;;;;;;56.30;27.00;;;;;;;-6.75;77.79;99880.52;216309;1256;61210;-73
2024/01/17 01:59:19;;;;;;;52.80;25.60;;;;;;;-6.70;77.83;99875.11;216209;1254;61262;-74
2024/01/17 02:04:11;;;;;;;53.50;25.40;;;;;;;-6.65;77.83;99873.45;216274;1254;65122;-74
2024/01/17 02:09:04;;;;;;;47.70;25.00;;;;;;;-6.61;77.81;99872.59;216225;1254;61269;-74
2024/01/17 02:13:59;;;;;;;49.10;24.90;;;;;;;-6.55;78.03;99872.52;216140;1254;61227;-74
2024/01/17 02:18:52;;;;;;;55.30;24.80;;;;;;;-6.50;78.17;99868.12;216226;1252;72468;-73
2024/01/17 02:23:50;;;;;;;39.20;21.30;;;;;;;-6.46;78.38;99865.91;216173;1253;61231;-74
2024/01/17 02:28:43;;;;;;;43.40;21.30;;;;;;;-6.41;78.68;99867.59;216194;1253;66399;-73
2024/01/17 02:33:37;;;;;;;41.50;23.60;;;;;;;-6.34;78.65;99868.05;216312;1254;61208;-74
2024/01/17 02:38:30;;;;;;;48.20;21.50;;;;;;;-6.29;79.17;99864.92;216111;1253;74607;-74
2024/01/17 02:43:23;;;;;;;42.60;20.40;;;;;;;-6.23;79.31;99858.23;216187;1253;61345;-74
2024/01/17 02:48:15;;;;;;;42.80;23.40;;;;;;;-6.18;79.40;99857.42;216278;1254;61291;-74
2024/01/17 02:53:08;;;;;;;42.00;21.80;;;;;;;-6.11;79.59;99860.05;216252;1253;61329;-74
2024/01/17 02:58:01;;;;;;;43.60;23.60;;;;;;;-6.06;79.48;99862.26;216068;1254;61435;-73
2024/01/17 03:02:54;;;;;;;40.70;20.00;;;;;;;-6.01;79.86;99858.56;216192;1253;61333;-73
2024/01/17 03:07:46;;;;;;;38.40;20.60;;;;;;;-5.96;80.04;99853.68;216224;1256;61259;-74
2024/01/17 03:12:40;;;;;;;41.70;20.90;;;;;;;-5.92;80.01;99856.23;216183;1256;61269;-73
2024/01/17 03:17:36;;;;;;;40.30;20.60;;;;;;;-5.89;79.78;99849.36;216146;1253;61330;-73
2024/01/17 03:22:28;;;;;;;42.00;21.40;;;;;;;-5.88;80.05;99831.56;216270;1253;61324;-73
2024/01/17 03:27:21;;;;;;;38.70;21.90;;;;;;;-5.89;79.95;99832.52;216313;1253;61271;-73
2024/01/17 03:32:14;;;;;;;39.80;20.20;;;;;;;-5.91;79.96;99845.86;216284;1254;61240;-73
2024/01/17 03:37:06;;;;;;;32.30;17.30;;;;;;;-5.90;80.14;99837.31;216155;1255;61351;-72
2024/01/17 03:42:00;;;;;;;46.30;23.00;;;;;;;-5.89;80.17;99838.44;216283;1253;61766;-72
2024/01/17 03:46:53;;;;;;;34.90;19.50;;;;;;;-5.86;80.12;99833.08;216139;1253;61391;-72
2024/01/17 03:51:46;;;;;;;47.50;22.40;;;;;;;-5.83;80.30;99836.98;216126;1254;61244;-72
2024/01/17 03:56:39;;;;;;;41.20;21.40;;;;;;;-5.80;80.28;99839.05;216311;1254;61246;-72
2024/01/17 04:01:32;;;;;;;45.90;22.30;;;;;;;-5.74;80.25;99842.28;216129;1254;61776;-72
2024/01/17 04:06:28;;;;;;;41.00;22.70;;;;;;;-5.70;80.26;99847.75;216178;1253;61222;-72
2024/01/17 04:11:21;;;;;;;42.70;21.90;;;;;;;-5.69;80.44;99847.03;216275;1254;61604;-71
2024/01/17 04:16:14;;;;;;;41.90;22.60;;;;;;;-5.66;80.54;99843.86;216238;1254;61246;-72
2024/01/17 04:21:07;;;;;;;47.80;23.90;;;;;;;-5.63;80.71;99838.10;216266;1254;61310;-72
2024/01/17 04:26:00;;;;;;;37.80;24.00;;;;;;;-5.62;80.57;99837.55;216242;1254;61379;-72
2024/01/17 04:30:52;;;;;;;44.30;21.40;;;;;;;-5.62;80.64;99841.41;216191;1253;61369;-72
2024/01/17 04:35:45;;;;;;;46.60;23.20;;;;;;;-5.62;80.62;99840.27;216145;1254;61200;-72
2024/01/17 04:40:38;;;;;;;45.30;22.40;;;;;;;-5.61;80.44;99834.23;216236;1254;61288;-72
2024/01/17 04:45:31;;;;;;;46.90;22.80;;;;;;;-5.60;80.76;99837.82;216111;1252;61507;-72
2024/01/17 04:50:23;;;;;;;41.60;20.80;;;;;;;-5.62;80.59;99837.52;216236;1253;61252;-72
2024/01/17 04:55:17;;;;;;;44.40;22.70;;;;;;;-5.66;80.36;99834.05;216405;1252;62973;-72
2024/01/17 05:00:12;;;;;;;43.20;23.40;;;;;;;-5.68;80.61;99828.83;216198;1253;61891;-72
2024/01/17 05:05:06;;;;;;;45.20;24.00;;;;;;;-5.70;80.63;99821.27;216161;1254;72362;-72
2024/01/17 05:10:00;;;;;;;40.80;20.20;;;;;;;-5.70;80.80;99822.61;216260;1253;70359;-72
2024/01/17 05:14:52;;;;;;;38.90;21.60;;;;;;;-5.71;80.57;99830.81;216162;1254;61275;-71
2024/01/17 05:19:45;;;;;;;41.50;22.50;;;;;;;-5.72;80.82;99831.42;216115;1253;61321;-72
2024/01/17 05:24:38;;;;;;;50.60;24.00;;;;;;;-5.73;80.78;99830.88;216159;1253;61350;-71
2024/01/17 05:29:34;;;;;;;40.90;21.80;;;;;;;-5.71;80.95;99833.85;216081;1253;61241;-72
2024/01/17 05:34:27;;;;;;;46.80;23.20;;;;;;;-5.69;80.97;99828.41;216035;1254;71872;-73
2024/01/17 05:39:20;;;;;;;49.60;26.30;;;;;;;-5.69;80.80;99827.10;216295;1256;61256;-72
2024/01/17 05:44:12;;;;;;;49.60;24.40;;;;;;;-5.70;80.82;99827.38;216236;1253;61211;-72
2024/01/17 05:49:07;;;;;;;56.70;27.40;;;;;;;-5.71;80.96;99829.67;216252;1256;61254;-72
2024/01/17 05:54:00;;;;;;;47.50;24.10;;;;;;;-5.74;80.85;99827.64;216168;1254;73408;-73
2024/01/17 05:58:53;;;;;;;49.60;22.30;;;;;;;-5.77;80.61;99827.95;216149;1254;61295;-72
2024/01/17 06:03:46;;;;;;;52.40;23.50;;;;;;;-5.79;80.79;99829.29;216246;1253;61352;-72
2024/01/17 06:08:38;;;;;;;42.20;22.60;;;;;;;-5.83;80.81;99820.08;216242;1253;61260;-72
2024/01/17 06:13:34;;;;;;;47.60;23.30;;;;;;;-5.88;80.65;99826.98;216135;1253;61246;-72
2024/01/17 06:18:27;;;;;;;42.40;21.90;;;;;;;-5.96;80.83;99826.69;216357;1253;61961;-72
2024/01/17 06:23:19;;;;;;;39.30;22.10;;;;;;;-6.00;80.96;99827.39;216265;1254;61377;-72
2024/01/17 06:28:12;;;;;;;42.50;23.40;;;;;;;-6.06;80.77;99827.69;216299;1256;61237;-72
2024/01/17 06:33:05;;;;;;;45.60;23.60;;;;;;;-6.14;80.73;99832.04;216306;1253;61380;-72
2024/01/17 06:37:58;;;;;;;47.50;25.20;;;;;;;-6.20;81.05;99829.79;216342;1253;60061;-72
2024/01/17 06:42:51;;;;;;;46.40;23.10;;;;;;;-6.28;80.71;99824.34;216073;1255;61307;-73
2024/01/17 06:47:44;;;;;;;44.10;22.60;;;;;;;-6.40;80.31;99814.39;216072;1254;61246;-72
2024/01/17 06:52:37;;;;;;;43.60;22.90;;;;;;;-6.51;80.52;99813.25;216192;1254;61234;-75
2024/01/17 06:57:30;;;;;;;36.20;20.70;;;;;;;-6.60;80.35;99808.81;216235;1253;61347;-74
2024/01/17 07:02:22;;;;;;;44.80;21.90;;;;;;;-6.66;80.39;99803.48;216135;1253;61243;-73
2024/01/17 07:07:15;;;;;;;42.70;21.00;;;;;;;-6.73;80.04;99799.10;216287;1253;62860;-74
2024/01/17 07:12:08;;;;;;;42.20;22.20;;;;;;;-6.81;79.97;99795.98;216203;1254;61359;-72
2024/01/17 07:17:01;;;;;;;42.20;19.20;;;;;;;-6.85;80.04;99792.84;216009;1254;61342;-73
2024/01/17 07:21:54;;;;;;;36.70;19.00;;;;;;;-6.88;79.93;99791.95;216229;1254;61230;-70
2024/01/17 07:26:47;;;;;;;36.60;19.10;;;;;;;-6.88;80.10;99789.39;216038;1253;61346;-72
2024/01/17 07:31:40;;;;;;;37.90;19.30;;;;;;;-6.89;79.61;99778.76;216073;1253;61310;-71
2024/01/17 07:36:33;;;;;;;33.80;18.50;;;;;;;-6.88;80.09;99772.10;216133;1252;61256;-71
2024/01/17 07:41:25;;;;;;;34.80;17.90;;;;;;;-6.81;80.01;99765.85;216293;1254;61343;-71
2024/01/17 07:46:18;;;;;;;36.70;18.20;;;;;;;-6.76;80.17;99752.01;216477;1253;61378;-71
2024/01/17 07:51:11;;;;;;;37.50;18.20;;;;;;;-6.71;80.16;99741.09;216315;1252;61282;-72
2024/01/17 07:56:04;;;;;;;37.60;16.60;;;;;;;-6.65;80.33;99741.34;216346;1253;67041;-72
2024/01/17 08:00:57;;;;;;;35.30;17.70;;;;;;;-6.60;80.07;99736.65;216279;1253;61256;-71
2024/01/17 08:05:50;;;;;;;31.00;15.70;;;;;;;-6.47;80.22;99732.79;216356;1254;61249;-72
2024/01/17 08:10:42;;;;;;;31.00;16.20;;;;;;;-6.31;80.67;99726.29;216313;1254;61240;-74
2024/01/17 08:15:35;;;;;;;37.40;18.40;;;;;;;-6.18;80.67;99721.77;216233;1253;61317;-74
2024/01/17 08:20:28;;;;;;;38.90;20.20;;;;;;;-6.09;80.72;99701.58;216196;1252;61386;-75
2024/01/17 08:25:21;;;;;;;41.40;20.80;;;;;;;-6.00;81.00;99695.46;216282;1254;61269;-74
2024/01/17 08:30:15;;;;;;;40.40;20.70;;;;;;;-5.86;80.73;99698.88;216265;1256;61243;-73
2024/01/17 08:35:08;;;;;;;33.10;19.00;;;;;;;-5.73;80.79;99702.08;216275;1254;72581;-72
2024/01/17 08:40:02;;;;;;;35.90;19.00;;;;;;;-5.60;81.22;99702.94;216296;1256;61179;-72
2024/01/17 08:44:55;;;;;;;40.70;22.50;;;;;;;-5.48;80.93;99706.05;216303;1253;66181;-72
2024/01/17 08:49:47;;;;;;;41.60;20.40;;;;;;;-5.36;81.38;99710.73;216180;1252;61288;-74
2024/01/17 08:54:40;;;;;;;39.10;19.50;;;;;;;-5.21;81.20;99706.59;216417;1253;61267;-74
2024/01/17 08:59:36;;;;;;;43.10;21.40;;;;;;;-5.08;81.38;99706.89;216352;1252;73050;-75
2024/01/17 09:04:29;;;;;;;35.40;20.40;;;;;;;-4.94;81.27;99698.48;216226;1253;61352;-74
2024/01/17 09:09:24;;;;;;;39.20;21.40;;;;;;;-4.86;81.06;99682.52;216266;1254;67005;-73
2024/01/17 09:14:19;;;;;;;42.90;21.40;;;;;;;-4.76;81.20;99678.45;216307;1254;61336;-72
2024/01/17 09:19:12;;;;;;;38.30;21.10;;;;;;;-4.57;81.08;99662.48;216238;1253;74575;-72
2024/01/17 09:24:05;;;;;;;38.70;21.10;;;;;;;-4.44;80.91;99654.31;216156;1256;72509;-72
2024/01/17 09:28:58;;;;;;;36.90;21.00;;;;;;;-4.36;81.01;99647.20;216265;1254;61252;-72
2024/01/17 09:33:51;;;;;;;43.70;23.50;;;;;;;-4.27;80.75;99631.98;216240;1253;61262;-72
2024/01/17 09:38:44;;;;;;;46.20;24.40;;;;;;;-4.16;81.08;99612.25;216234;1254;61264;-72
2024/01/17 09:43:37;;;;;;;42.00;23.60;;;;;;;-4.09;80.76;99602.20;216164;1256;61266;-70
2024/01/17 09:48:30;;;;;;;39.40;20.90;;;;;;;-4.04;80.70;99592.68;216174;1253;61295;-71
2024/01/17 09:53:29;;;;;;;39.30;21.80;;;;;;;-3.99;80.73;99576.00;216063;1254;61240;-72
2024/01/17 09:58:22;;;;;;;35.30;20.90;;;;;;;-3.95;80.70;99564.41;216216;1251;65931;-73
2024/01/17 10:03:20;;;;;;;42.40;23.60;;;;;;;-3.84;80.90;99547.23;216202;1254;61471;-71
2024/01/17 10:08:16;;;;;;;36.80;19.00;;;;;;;-3.74;80.95;99532.38;216192;1254;72173;-72
2024/01/17 10:13:10;;;;;;;43.90;24.50;;;;;;;-3.61;80.95;99517.16;216181;1254;71414;-72
2024/01/17 10:18:03;;;;;;;41.30;20.60;;;;;;;-3.49;80.72;99501.17;216181;1254;61286;-73
2024/01/17 10:22:56;;;;;;;33.20;19.10;;;;;;;-3.31;80.68;99491.81;216269;1253;65776;-71
2024/01/17 10:27:50;;;;;;;36.50;20.90;;;;;;;-3.18;80.56;99477.57;216181;1254;61256;-70
2024/01/17 10:32:43;;;;;;;34.90;21.20;;;;;;;-3.06;80.54;99461.92;216171;1253;74410;-72
2024/01/17 10:37:37;;;;;;;36.50;22.80;;;;;;;-2.22;79.65;99446.83;216127;1254;72713;-72
2024/01/17 10:42:30;;;;;;;43.40;26.80;;;;;;;-0.55;77.59;99429.14;216168;1254;61368;-72
2024/01/17 10:47:23;;;;;;;45.60;29.60;;;;;;;0.65;75.52;99409.00;216101;1256;61259;-71
2024/01/17 10:52:18;;;;;;;46.80;28.90;;;;;;;1.31;74.19;99397.11;216166;1254;61355;-73
2024/01/17 10:57:12;;;;;;;48.10;31.20;;;;;;;1.38;73.92;99392.23;216170;1254;74727;-73
2024/01/17 11:02:06;;;;;;;43.00;28.40;;;;;;;1.65;73.45;99382.83;216125;1254;72637;-70
2024/01/17 11:07:01;;;;;;;38.60;26.40;;;;;;;2.27;72.82;99372.38;216170;1254;61261;-71
2024/01/17 11:11:57;;;;;;;41.30;27.30;;;;;;;2.56;72.55;99363.92;216203;1254;67815;-71
2024/01/17 11:16:51;;;;;;;40.70;27.10;;;;;;;3.18;70.79;99344.33;216131;1254;61224;-71
2024/01/17 11:21:53;;;;;;;40.20;27.20;;;;;;;3.46;70.08;99330.78;216209;1253;73324;-73
2024/01/17 11:27:15;;;;;;;40.20;27.50;;;;;;;3.21;70.11;99314.79;216216;1256;72663;-72
2024/01/17 11:32:20;;;;;;;39.10;26.30;;;;;;;2.97;70.07;99300.48;216236;1254;61269;-71
2024/01/17 11:37:28;;;;;;;37.30;25.70;;;;;;;3.30;69.56;99297.68;216317;1253;65794;-71
2024/01/17 11:42:21;;;;;;;36.80;25.70;;;;;;;4.25;68.54;99280.11;216263;1254;61195;-72
2024/01/17 11:47:21;;;;;;;37.00;27.60;;;;;;;5.62;66.17;99260.26;216196;1254;74513;-72
2024/01/17 11:52:37;;;;;;;31.00;24.20;;;;;;;6.28;65.19;99244.39;216248;1256;70976;-71
2024/01/17 11:57:37;;;;;;;30.80;23.00;;;;;;;6.35;64.40;99237.43;216181;1254;61439;-71
2024/01/17 12:02:43;;;;;;;31.70;22.70;;;;;;;5.84;64.55;99245.60;216277;1254;66039;-72
2024/01/17 12:07:40;;;;;;;32.90;23.20;;;;;;;4.66;65.43;99240.41;216164;1253;61884;-71
2024/01/17 12:12:34;;;;;;;33.30;22.70;;;;;;;3.91;65.84;99229.60;216322;1253;75323;-71
2024/01/17 12:17:26;;;;;;;35.70;24.60;;;;;;;3.45;66.26;99219.56;216193;1254;61265;-72
2024/01/17 12:22:20;;;;;;;29.80;21.20;;;;;;;2.88;67.10;99217.61;216196;1254;65348;-72
2024/01/17 12:27:14;;;;;;;33.20;21.90;;;;;;;2.33;67.13;99215.20;216156;1252;68089;-70
2024/01/17 12:32:08;;;;;;;35.40;22.30;;;;;;;1.76;67.95;99215.73;216211;1254;61387;-71
2024/01/17 12:37:01;;;;;;;38.10;21.50;;;;;;;1.38;68.06;99210.55;215996;1256;74793;-71
2024/01/17 12:41:56;;;;;;;35.80;22.20;;;;;;;1.05;68.26;99205.29;216165;1254;61247;-72
2024/01/17 12:46:49;;;;;;;35.10;22.80;;;;;;;0.83;68.65;99204.77;216234;1254;61200;-71
2024/01/17 12:51:42;;;;;;;28.50;19.40;;;;;;;0.61;68.68;99193.51;216138;1254;61240;-71
2024/01/17 12:56:36;;;;;;;31.40;19.00;;;;;;;0.40;69.46;99180.37;216217;1254;61194;-72
2024/01/17 13:01:31;;;;;;;29.20;18.60;;;;;;;0.20;69.30;99174.79;215957;1254;74502;-71
2024/01/17 13:06:28;;;;;;;27.50;16.70;;;;;;;-0.05;69.28;99166.44;216102;1254;71432;-73
2024/01/17 13:11:24;;;;;;;31.20;18.50;;;;;;;-0.24;69.60;99164.75;216131;1256;61412;-72
2024/01/17 13:16:17;;;;;;;26.20;17.60;;;;;;;-0.44;70.32;99161.65;216174;1256;67196;-71
2024/01/17 13:21:12;;;;;;;34.10;19.90;;;;;;;-0.58;70.52;99142.61;216173;1253;61278;-71
2024/01/17 13:26:06;;;;;;;30.10;18.20;;;;;;;-0.74;70.32;99129.75;216171;1254;74574;-71
2024/01/17 13:30:58;;;;;;;27.50;18.20;;;;;;;-0.90;70.75;99118.31;216230;1254;61262;-71
2024/01/17 13:35:54;;;;;;;28.50;17.20;;;;;;;-1.04;70.86;99110.31;216003;1254;198948;-72
2024/01/17 13:40:47;;;;;;;31.10;18.90;;;;;;;-1.14;70.97;99098.38;216268;1254;67529;-72
2024/01/17 13:45:40;;;;;;;29.60;18.30;;;;;;;-1.21;71.37;99087.22;216201;1254;62032;-71
2024/01/17 13:50:33;;;;;;;30.80;19.50;;;;;;;-1.26;71.50;99079.39;216241;1256;61333;-72
2024/01/17 13:55:26;;;;;;;28.20;17.80;;;;;;;-1.31;71.58;99076.30;216075;1254;61304;-72
2024/01/17 14:00:22;;;;;;;32.50;19.80;;;;;;;-1.41;71.65;99061.65;216232;1254;61260;-71
2024/01/17 14:05:16;;;;;;;30.60;17.70;;;;;;;-1.48;71.82;99048.80;216182;1254;66799;-71
2024/01/17 14:10:11;;;;;;;27.70;15.90;;;;;;;-1.55;71.77;99037.32;216104;1254;61208;-72
2024/01/17 14:15:05;;;;;;;26.30;17.10;;;;;;;-1.64;71.76;99032.59;216087;1254;73167;-71
2024/01/17 14:20:03;;;;;;;27.30;16.40;;;;;;;-1.75;72.07;99021.60;216125;1254;71419;-72
2024/01/17 14:24:56;;;;;;;24.10;14.20;;;;;;;-1.92;72.23;99014.50;216022;1254;61242;-71
2024/01/17 14:29:49;;;;;;;27.50;15.60;;;;;;;-2.10;72.46;99003.60;216110;1256;61243;-71
2024/01/17 14:34:42;;;;;;;29.50;16.90;;;;;;;-2.25;72.71;98996.35;216167;1254;61269;-70
2024/01/17 14:39:37;;;;;;;25.80;15.00;;;;;;;-2.42;72.84;98992.96;216012;1257;74432;-72
2024/01/17 14:44:30;;;;;;;24.20;15.60;;;;;;;-2.55;73.19;98991.25;216271;1254;72951;-72
2024/01/17 14:49:22;;;;;;;28.30;17.40;;;;;;;-2.66;73.37;98981.81;215930;1258;61230;-73
2024/01/17 14:54:15;;;;;;;34.00;18.50;;;;;;;-2.76;73.60;98971.92;216040;1257;61398;-73
2024/01/17 14:59:09;;;;;;;30.00;16.60;;;;;;;-2.84;73.66;98966.79;216144;1254;61254;-71
2024/01/17 15:04:02;;;;;;;26.10;15.30;;;;;;;-2.88;73.95;98962.38;216039;1254;73091;-71
2024/01/17 15:08:54;;;;;;;27.50;16.00;;;;;;;-2.93;74.00;98963.04;216098;1257;61368;-72
2024/01/17 15:13:47;;;;;;;26.30;16.20;;;;;;;-2.99;74.16;98943.45;216142;1258;61250;-71
2024/01/17 15:18:40;;;;;;;24.30;15.70;;;;;;;-3.03;74.22;98931.91;216027;1254;61288;-71
2024/01/17 15:23:33;;;;;;;27.00;16.10;;;;;;;-3.08;74.61;98920.89;216050;1254;61698;-73
2024/01/17 15:28:25;;;;;;;31.10;16.90;;;;;;;-3.13;74.74;98904.08;215864;1256;61362;-70
2024/01/17 15:33:18;;;;;;;29.80;17.00;;;;;;;-3.15;74.85;98890.75;215974;1255;61312;-70
2024/01/17 15:38:15;;;;;;;30.50;15.00;;;;;;;-3.15;74.77;98886.36;216116;1255;61207;-70
2024/01/17 15:43:08;;;;;;;30.70;17.00;;;;;;;-3.13;74.94;98871.88;216088;1255;61266;-70
2024/01/17 15:48:01;;;;;;;26.00;16.20;;;;;;;-3.11;74.95;98854.49;215869;1257;61259;-70
2024/01/17 15:52:54;;;;;;;27.50;15.60;;;;;;;-3.11;75.06;98846.34;216120;1256;61324;-71
2024/01/17 15:57:47;;;;;;;27.00;14.60;;;;;;;-3.13;75.07;98836.95;215995;1255;61291;-72
2024/01/17 16:02:41;;;;;;;31.70;16.80;;;;;;;-3.13;75.42;98829.34;216128;1254;61252;-71
2024/01/17 16:07:34;;;;;;;29.80;17.70;;;;;;;-3.12;75.35;98818.01;216016;1254;65870;-71
2024/01/17 16:12:27;;;;;;;25.20;15.20;;;;;;;-3.10;75.33;98804.52;216037;1254;64258;-71
2024/01/17 16:17:21;;;;;;;26.70;17.10;;;;;;;-3.09;75.73;98801.04;216126;1254;61288;-72
2024/01/17 16:22:14;;;;;;;26.30;15.20;;;;;;;-3.05;75.58;98795.39;216062;1255;71418;-71
2024/01/17 16:27:06;;;;;;;26.70;15.70;;;;;;;-3.04;75.84;98782.19;216052;1254;61240;-71
2024/01/17 16:31:59;;;;;;;21.80;12.80;;;;;;;-3.04;75.84;98771.20;216122;1253;61268;-72
2024/01/17 16:36:52;;;;;;;25.30;14.60;;;;;;;-3.02;76.01;98760.41;216327;1254;61290;-73
2024/01/17 16:41:46;;;;;;;24.70;14.50;;;;;;;-3.01;76.07;98752.85;216193;1254;61388;-73
2024/01/17 16:46:39;;;;;;;25.50;14.10;;;;;;;-2.98;76.34;98743.13;216079;1256;72551;-71
2024/01/17 16:51:32;;;;;;;21.30;12.70;;;;;;;-2.90;76.31;98735.64;216044;1256;61249;-74
2024/01/17 16:56:25;;;;;;;19.60;13.00;;;;;;;-2.83;76.47;98723.20;216232;1254;65661;-71
2024/01/17 17:01:18;;;;;;;19.20;12.60;;;;;;;-2.75;76.33;98720.45;216248;1253;63101;-71
2024/01/17 17:06:11;;;;;;;19.20;10.70;;;;;;;-2.71;76.38;98713.45;216243;1254;74330;-70
2024/01/17 17:11:04;;;;;;;21.90;13.50;;;;;;;-2.70;76.17;98706.72;216174;1255;61298;-71
2024/01/17 17:15:57;;;;;;;19.00;11.70;;;;;;;-2.68;76.29;98695.60;216198;1254;61387;-71
2024/01/17 17:20:50;;;;;;;21.00;12.90;;;;;;;-2.66;76.20;98679.37;216187;1254;61462;-71
2024/01/17 17:25:43;;;;;;;19.40;10.50;;;;;;;-2.65;76.28;98661.95;216176;1256;61259;-71
2024/01/17 17:30:38;;;;;;;18.80;11.40;;;;;;;-2.62;76.43;98662.40;216172;1254;61256;-71
2024/01/17 17:35:31;;;;;;;18.10;12.30;;;;;;;-2.58;76.31;98655.42;216261;1255;70432;-71
2024/01/17 17:40:24;;;;;;;19.10;11.60;;;;;;;-2.58;76.32;98649.31;216168;1254;61894;-71
2024/01/17 17:45:17;;;;;;;18.10;11.40;;;;;;;-2.56;76.45;98635.46;216105;1254;61259;-71
2024/01/17 17:50:13;;;;;;;19.40;11.50;;;;;;;-2.54;76.25;98627.72;216228;1255;61226;-71
2024/01/17 17:55:06;;;;;;;20.90;11.70;;;;;;;-2.55;76.21;98618.37;216148;1256;75326;-71
2024/01/17 18:00:00;;;;;;;15.20;10.60;;;;;;;-2.56;76.20;98610.88;216030;1254;73044;-71
2024/01/17 18:04:56;;;;;;;18.10;11.10;;;;;;;-2.55;76.04;98601.23;215970;1254;61371;-74
2024/01/17 18:09:49;;;;;;;16.30;10.30;;;;;;;-2.58;76.22;98588.25;215980;1254;64655;-73
2024/01/17 18:14:42;;;;;;;16.00;10.30;;;;;;;-2.60;76.02;98579.52;216109;1256;61317;-73
2024/01/17 18:19:37;;;;;;;19.00;11.10;;;;;;;-2.58;75.93;98564.67;216120;1252;61356;-74
2024/01/17 18:24:30;;;;;;;19.00;11.00;;;;;;;-2.56;76.08;98553.70;216008;1254;71513;-73
2024/01/17 18:29:25;;;;;;;17.10;9.90;;;;;;;-2.52;75.95;98544.88;216195;1254;61351;-73
2024/01/17 18:34:22;;;;;;;14.10;9.20;;;;;;;-2.51;75.69;98533.02;216014;1254;67141;-74
2024/01/17 18:39:15;;;;;;;13.80;9.00;;;;;;;-2.50;75.62;98519.98;215960;1254;61262;-74
2024/01/17 18:44:08;;;;;;;15.30;9.80;;;;;;;-2.48;75.59;98500.20;215757;1254;73561;-74
2024/01/17 18:49:01;;;;;;;17.80;11.50;;;;;;;-2.50;75.69;98490.30;215699;1254;61257;-73
2024/01/17 18:53:54;;;;;;;18.20;9.70;;;;;;;-2.52;75.48;98479.89;215828;1254;61259;-73
2024/01/17 18:58:47;;;;;;;18.60;9.30;;;;;;;-2.55;75.62;98475.55;215998;1254;65674;-73
2024/01/17 19:03:40;;;;;;;16.40;10.40;;;;;;;-2.57;75.49;98465.46;215812;1257;61903;-74
2024/01/17 19:08:33;;;;;;;16.50;9.20;;;;;;;-2.56;75.39;98452.27;215953;1257;61372;-73
2024/01/17 19:13:25;;;;;;;16.90;8.80;;;;;;;-2.54;75.42;98440.81;215873;1254;61338;-73
2024/01/17 19:18:18;;;;;;;17.00;9.60;;;;;;;-2.55;75.44;98422.60;215888;1254;61365;-73
2024/01/17 19:23:14;;;;;;;16.00;10.50;;;;;;;-2.52;75.42;98415.77;215858;1254;61345;-73
2024/01/17 19:28:07;;;;;;;15.20;9.90;;;;;;;-2.54;75.58;98408.56;216069;1252;61320;-73
2024/01/17 19:32:59;;;;;;;16.60;10.10;;;;;;;-2.52;75.36;98398.80;215922;1254;61259;-73
2024/01/17 19:37:53;;;;;;;15.30;9.10;;;;;;;-2.50;75.36;98399.21;216125;1254;61062;-74
2024/01/17 19:42:46;;;;;;;14.10;9.50;;;;;;;-2.48;75.37;98394.02;216008;1254;61226;-73
2024/01/17 19:47:39;;;;;;;20.50;10.80;;;;;;;-2.45;75.43;98382.88;216008;1253;61337;-73
2024/01/17 19:52:32;;;;;;;16.00;9.30;;;;;;;-2.41;75.44;98378.61;216121;1254;61234;-73
2024/01/17 19:57:25;;;;;;;16.20;9.30;;;;;;;-2.40;75.24;98362.54;215999;1253;61369;-73
2024/01/17 20:02:17;;;;;;;18.40;10.50;;;;;;;-2.40;75.09;98354.23;215964;1254;61350;-73
2024/01/17 20:07:10;;;;;;;18.10;10.50;;;;;;;-2.42;75.27;98357.38;216019;1254;61240;-73
2024/01/17 20:12:03;;;;;;;18.80;10.60;;;;;;;-2.46;75.27;98352.86;215885;1254;61256;-74
2024/01/17 20:16:57;;;;;;;20.80;11.00;;;;;;;-2.49;75.28;98348.16;215871;1253;59644;-75
2024/01/17 20:21:50;;;;;;;21.10;10.20;;;;;;;-2.48;75.21;98341.91;216269;1253;64107;-73
2024/01/17 20:26:43;;;;;;;18.70;10.40;;;;;;;-2.44;75.37;98326.27;216174;1254;71397;-73
2024/01/17 20:31:36;;;;;;;18.90;11.40;;;;;;;-2.38;75.41;98299.48;215865;1254;61253;-75
2024/01/17 20:36:29;;;;;;;17.60;10.20;;;;;;;-2.30;75.81;98297.00;216253;1254;67052;-74
2024/01/17 20:41:48;;;;;;;21.30;10.80;;;;;;;-2.24;75.65;98288.67;215990;1254;61086;-75
2024/01/17 20:46:43;;;;;;;18.10;10.20;;;;;;;-2.17;75.66;98288.71;216206;1253;73577;-74
2024/01/17 20:51:36;;;;;;;17.10;10.60;;;;;;;-2.11;75.91;98282.10;216160;1254;61429;-74
2024/01/17 20:56:29;;;;;;;19.10;9.80;;;;;;;-2.04;75.74;98268.70;216222;1254;61250;-75
2024/01/17 21:01:22;;;;;;;20.80;11.20;;;;;;;-1.97;75.64;98249.54;216225;1254;67006;-75
2024/01/17 21:06:15;;;;;;;15.10;9.90;;;;;;;-1.92;75.70;98238.29;216295;1254;61545;-75
2024/01/17 21:11:08;;;;;;;15.70;9.90;;;;;;;-1.88;75.89;98227.53;216153;1254;61255;-75
2024/01/17 21:16:00;;;;;;;17.70;10.70;;;;;;;-1.82;76.02;98224.96;216217;1254;61351;-75
2024/01/17 21:20:54;;;;;;;13.90;9.50;;;;;;;-1.77;76.14;98207.11;216256;1252;61297;-75
2024/01/17 21:25:47;;;;;;;15.20;9.60;;;;;;;-1.71;76.43;98192.48;216175;1254;65779;-75
2024/01/17 21:30:40;;;;;;;15.70;9.40;;;;;;;-1.65;76.37;98181.75;216397;1254;61287;-75
2024/01/17 21:35:33;;;;;;;14.60;9.50;;;;;;;-1.60;76.87;98166.75;216294;1253;73374;-75
2024/01/17 21:40:26;;;;;;;14.10;8.00;;;;;;;-1.58;76.82;98164.45;216335;1254;71904;-75
2024/01/17 21:45:19;;;;;;;16.50;8.30;;;;;;;-1.54;77.27;98162.67;216008;1254;61336;-75
2024/01/17 21:50:12;;;;;;;16.80;9.60;;;;;;;-1.49;77.70;98161.06;216056;1253;61248;-75
2024/01/17 21:55:05;;;;;;;16.20;9.60;;;;;;;-1.45;77.98;98157.26;216013;1254;61323;-75
2024/01/17 22:00:00;;;;;;;13.80;9.10;;;;;;;-1.41;78.12;98157.52;215852;1253;72935;-75
2024/01/17 22:05:03;;;;;;;16.40;8.90;;;;;;;-1.38;78.33;98141.45;216113;1253;70703;-75
2024/01/17 22:10:19;;;;;;;17.60;10.50;;;;;;;-1.35;78.87;98128.44;216194;1254;61333;-75
2024/01/17 22:15:12;;;;;;;16.40;8.80;;;;;;;-1.34;79.31;98115.21;215839;1253;67077;-75
2024/01/17 22:20:05;;;;;;;15.00;9.20;;;;;;;-1.33;79.69;98099.59;215803;1253;61349;-75